sensor_id;sensor_type;location;lat;lon;timestamp;pressure;altitude;pressure_sealevel;temperature;humidity
72900;BME280;61043;52.036;5.566;2022-09-25T00:01:59;101708.25;;;11.66;84.89
72900;BME280;61043;52.036;5.566;2022-09-25T00:04:26;101725.78;;;11.69;84.35
72900;BME280;61043;52.036;5.566;2022-09-25T00:06:52;101680.41;;;11.43;84.29
72900;BME280;61043;52.036;5.566;2022-09-25T00:09:19;101696.06;;;11.48;84.56
72900;BME280;61043;52.036;5.566;2022-09-25T00:11:48;101703.00;;;11.50;84.60
72900;BME280;61043;52.036;5.566;2022-09-25T00:14:15;101709.25;;;11.49;84.42
72900;BME280;61043;52.036;5.566;2022-09-25T00:16:41;101730.28;;;11.52;84.26
72900;BME280;61043;52.036;5.566;2022-09-25T00:19:12;101718.13;;;11.48;84.36
72900;BME280;61043;52.036;5.566;2022-09-25T00:22:02;101717.47;;;11.45;84.66
72900;BME280;61043;52.036;5.566;2022-09-25T00:24:29;101726.28;;;11.45;84.40
72900;BME280;61043;52.036;5.566;2022-09-25T00:26:57;101713.19;;;11.42;84.43
72900;BME280;61043;52.036;5.566;2022-09-25T00:29:25;101723.97;;;11.39;84.65
72900;BME280;61043;52.036;5.566;2022-09-25T00:31:53;101724.13;;;11.36;84.37
72900;BME280;61043;52.036;5.566;2022-09-25T00:34:20;101725.84;;;11.37;84.50
72900;BME280;61043;52.036;5.566;2022-09-25T00:36:46;101710.31;;;11.15;84.84
72900;BME280;61043;52.036;5.566;2022-09-25T00:39:13;101718.38;;;11.13;85.02
72900;BME280;61043;52.036;5.566;2022-09-25T00:41:39;101724.53;;;11.14;85.01
72900;BME280;61043;52.036;5.566;2022-09-25T00:50:27;101739.22;;;11.20;85.29
72900;BME280;61043;52.036;5.566;2022-09-25T00:52:59;101736.75;;;11.17;84.94
72900;BME280;61043;52.036;5.566;2022-09-25T00:55:30;101729.91;;;11.12;84.99
72900;BME280;61043;52.036;5.566;2022-09-25T00:57:59;101725.56;;;11.11;84.49
72900;BME280;61043;52.036;5.566;2022-09-25T01:00:28;101724.88;;;11.08;85.20
72900;BME280;61043;52.036;5.566;2022-09-25T01:02:55;101722.47;;;11.03;84.81
72900;BME280;61043;52.036;5.566;2022-09-25T01:05:25;101724.94;;;11.06;84.45
72900;BME280;61043;52.036;5.566;2022-09-25T01:07:55;101723.59;;;10.99;84.31
72900;BME280;61043;52.036;5.566;2022-09-25T01:10:22;101729.31;;;11.07;84.55
72900;BME280;61043;52.036;5.566;2022-09-25T01:12:50;101733.16;;;11.02;84.47
72900;BME280;61043;52.036;5.566;2022-09-25T01:15:24;101733.25;;;11.00;84.89
72900;BME280;61043;52.036;5.566;2022-09-25T01:18:25;101732.31;;;11.01;85.02
72900;BME280;61043;52.036;5.566;2022-09-25T01:21:14;101733.50;;;10.96;84.66
72900;BME280;61043;52.036;5.566;2022-09-25T01:23:55;101736.06;;;10.97;84.55
72900;BME280;61043;52.036;5.566;2022-09-25T01:29:10;101725.75;;;10.92;84.47
72900;BME280;61043;52.036;5.566;2022-09-25T01:37:14;101731.28;;;10.88;85.08
72900;BME280;61043;52.036;5.566;2022-09-25T01:40:12;101716.66;;;10.81;84.56
72900;BME280;61043;52.036;5.566;2022-09-25T01:42:51;101726.59;;;10.77;84.92
72900;BME280;61043;52.036;5.566;2022-09-25T01:45:24;101726.75;;;10.74;84.16
72900;BME280;61043;52.036;5.566;2022-09-25T01:47:58;101712.44;;;10.61;84.47
72900;BME280;61043;52.036;5.566;2022-09-25T01:50:52;101742.66;;;10.74;84.88
72900;BME280;61043;52.036;5.566;2022-09-25T01:53:25;101745.53;;;10.69;84.49
72900;BME280;61043;52.036;5.566;2022-09-25T01:55:59;101718.63;;;10.61;84.67
72900;BME280;61043;52.036;5.566;2022-09-25T01:58:41;101728.88;;;10.67;84.82
72900;BME280;61043;52.036;5.566;2022-09-25T02:01:17;101727.31;;;10.63;84.54
72900;BME280;61043;52.036;5.566;2022-09-25T02:03:58;101729.13;;;10.63;84.28
72900;BME280;61043;52.036;5.566;2022-09-25T02:06:31;101723.81;;;10.63;84.48
72900;BME280;61043;52.036;5.566;2022-09-25T02:09:24;101714.25;;;10.60;83.98
72900;BME280;61043;52.036;5.566;2022-09-25T02:11:56;101722.44;;;10.56;84.11
72900;BME280;61043;52.036;5.566;2022-09-25T02:14:44;101723.31;;;10.56;84.78
72900;BME280;61043;52.036;5.566;2022-09-25T02:17:28;101720.81;;;10.53;84.58
72900;BME280;61043;52.036;5.566;2022-09-25T02:20:16;101726.09;;;10.53;84.18
72900;BME280;61043;52.036;5.566;2022-09-25T02:23:22;101716.81;;;10.46;84.16
72900;BME280;61043;52.036;5.566;2022-09-25T02:26:01;101723.81;;;10.47;84.39
72900;BME280;61043;52.036;5.566;2022-09-25T02:28:30;101721.41;;;10.42;84.28
72900;BME280;61043;52.036;5.566;2022-09-25T02:30:57;101721.50;;;10.41;84.58
72900;BME280;61043;52.036;5.566;2022-09-25T02:33:25;101720.88;;;10.36;84.44
72900;BME280;61043;52.036;5.566;2022-09-25T02:35:53;101729.44;;;10.41;84.07
72900;BME280;61043;52.036;5.566;2022-09-25T02:38:20;101726.19;;;10.36;84.52
72900;BME280;61043;52.036;5.566;2022-09-25T02:41:01;101732.25;;;10.38;84.83
72900;BME280;61043;52.036;5.566;2022-09-25T02:43:57;101731.47;;;10.36;84.70
72900;BME280;61043;52.036;5.566;2022-09-25T02:52:10;101733.59;;;10.29;84.58
72900;BME280;61043;52.036;5.566;2022-09-25T02:54:44;101733.03;;;10.22;84.59
72900;BME280;61043;52.036;5.566;2022-09-25T03:00:04;101723.53;;;10.18;84.75
72900;BME280;61043;52.036;5.566;2022-09-25T03:02:33;101725.41;;;10.16;84.67
72900;BME280;61043;52.036;5.566;2022-09-25T03:05:01;101718.31;;;10.17;84.93
72900;BME280;61043;52.036;5.566;2022-09-25T03:07:28;101731.03;;;10.10;84.74
72900;BME280;61043;52.036;5.566;2022-09-25T03:10:16;101719.88;;;10.03;84.96
72900;BME280;61043;52.036;5.566;2022-09-25T03:12:43;101720.59;;;10.07;84.68
72900;BME280;61043;52.036;5.566;2022-09-25T03:15:11;101723.41;;;10.04;84.30
72900;BME280;61043;52.036;5.566;2022-09-25T03:17:37;101719.03;;;10.03;84.96
72900;BME280;61043;52.036;5.566;2022-09-25T03:20:07;101721.63;;;10.04;85.03
72900;BME280;61043;52.036;5.566;2022-09-25T03:22:35;101713.13;;;9.98;84.94
72900;BME280;61043;52.036;5.566;2022-09-25T03:25:03;101716.88;;;9.94;84.92
72900;BME280;61043;52.036;5.566;2022-09-25T03:27:30;101707.56;;;9.87;84.95
72900;BME280;61043;52.036;5.566;2022-09-25T03:29:57;101710.97;;;9.89;85.01
72900;BME280;61043;52.036;5.566;2022-09-25T03:32:23;101722.25;;;9.92;85.59
72900;BME280;61043;52.036;5.566;2022-09-25T03:34:50;101723.19;;;9.91;84.99
72900;BME280;61043;52.036;5.566;2022-09-25T03:37:16;101722.31;;;9.91;85.29
72900;BME280;61043;52.036;5.566;2022-09-25T03:39:43;101720.56;;;9.91;85.58
72900;BME280;61043;52.036;5.566;2022-09-25T03:42:09;101718.91;;;9.89;85.31
72900;BME280;61043;52.036;5.566;2022-09-25T03:44:36;101707.38;;;9.90;85.09
72900;BME280;61043;52.036;5.566;2022-09-25T03:47:02;101703.97;;;9.88;85.51
72900;BME280;61043;52.036;5.566;2022-09-25T03:49:29;101713.53;;;9.90;85.20
72900;BME280;61043;52.036;5.566;2022-09-25T03:51:55;101720.56;;;9.91;85.25
72900;BME280;61043;52.036;5.566;2022-09-25T03:54:22;101712.63;;;9.91;85.09
72900;BME280;61043;52.036;5.566;2022-09-25T03:56:48;101716.41;;;9.85;84.66
72900;BME280;61043;52.036;5.566;2022-09-25T03:59:15;101696.59;;;9.77;84.54
72900;BME280;61043;52.036;5.566;2022-09-25T04:01:42;101705.13;;;9.82;85.03
72900;BME280;61043;52.036;5.566;2022-09-25T04:04:08;101710.38;;;9.83;84.95
72900;BME280;61043;52.036;5.566;2022-09-25T04:06:35;101704.00;;;9.70;85.08
72900;BME280;61043;52.036;5.566;2022-09-25T04:09:01;101724.59;;;9.81;85.49
72900;BME280;61043;52.036;5.566;2022-09-25T04:11:28;101718.59;;;9.77;85.16
72900;BME280;61043;52.036;5.566;2022-09-25T04:13:54;101714.31;;;9.75;84.52
72900;BME280;61043;52.036;5.566;2022-09-25T04:16:22;101706.53;;;9.72;84.94
72900;BME280;61043;52.036;5.566;2022-09-25T04:18:48;101720.38;;;9.77;85.00
72900;BME280;61043;52.036;5.566;2022-09-25T04:21:15;101707.56;;;9.69;85.36
72900;BME280;61043;52.036;5.566;2022-09-25T04:23:42;101711.22;;;9.67;84.65
72900;BME280;61043;52.036;5.566;2022-09-25T04:26:29;101705.06;;;9.66;84.63
72900;BME280;61043;52.036;5.566;2022-09-25T04:28:55;101701.75;;;9.62;84.25
72900;BME280;61043;52.036;5.566;2022-09-25T04:31:22;101709.69;;;9.62;84.60
72900;BME280;61043;52.036;5.566;2022-09-25T04:33:48;101703.59;;;9.60;84.64
72900;BME280;61043;52.036;5.566;2022-09-25T04:36:16;101709.69;;;9.62;85.27
72900;BME280;61043;52.036;5.566;2022-09-25T04:38:44;101706.31;;;9.59;84.75
72900;BME280;61043;52.036;5.566;2022-09-25T04:41:11;101656.00;;;9.26;84.85
72900;BME280;61043;52.036;5.566;2022-09-25T04:43:38;101709.06;;;9.57;84.90
72900;BME280;61043;52.036;5.566;2022-09-25T04:46:08;101720.31;;;9.61;84.84
72900;BME280;61043;52.036;5.566;2022-09-25T04:48:43;101704.91;;;9.52;84.50
72900;BME280;61043;52.036;5.566;2022-09-25T04:51:10;101711.81;;;9.54;84.78
72900;BME280;61043;52.036;5.566;2022-09-25T04:53:36;101708.25;;;9.55;84.79
72900;BME280;61043;52.036;5.566;2022-09-25T04:56:06;101705.47;;;9.58;84.73
72900;BME280;61043;52.036;5.566;2022-09-25T04:58:46;101697.69;;;9.55;84.76
72900;BME280;61043;52.036;5.566;2022-09-25T05:01:15;101702.19;;;9.53;84.91
72900;BME280;61043;52.036;5.566;2022-09-25T05:03:42;101707.53;;;9.52;84.63
72900;BME280;61043;52.036;5.566;2022-09-25T05:06:08;101704.00;;;9.53;84.84
72900;BME280;61043;52.036;5.566;2022-09-25T05:08:35;101697.06;;;9.50;85.05
72900;BME280;61043;52.036;5.566;2022-09-25T05:11:01;101692.00;;;9.46;84.94
72900;BME280;61043;52.036;5.566;2022-09-25T05:13:29;101700.72;;;9.48;85.47
72900;BME280;61043;52.036;5.566;2022-09-25T05:15:55;101684.78;;;9.32;85.79
72900;BME280;61043;52.036;5.566;2022-09-25T05:18:22;101711.28;;;9.48;85.34
72900;BME280;61043;52.036;5.566;2022-09-25T05:20:50;101708.81;;;9.45;85.16
72900;BME280;61043;52.036;5.566;2022-09-25T05:23:19;101704.59;;;9.40;85.35
72900;BME280;61043;52.036;5.566;2022-09-25T05:25:56;101700.16;;;9.41;85.57
72900;BME280;61043;52.036;5.566;2022-09-25T05:28:31;101708.19;;;9.39;85.68
72900;BME280;61043;52.036;5.566;2022-09-25T05:30:59;101709.81;;;9.42;85.58
72900;BME280;61043;52.036;5.566;2022-09-25T05:33:31;101702.78;;;9.41;85.07
72900;BME280;61043;52.036;5.566;2022-09-25T05:36:02;101699.38;;;9.39;85.17
72900;BME280;61043;52.036;5.566;2022-09-25T05:38:31;101681.28;;;9.31;85.45
72900;BME280;61043;52.036;5.566;2022-09-25T05:41:08;101704.44;;;9.44;85.77
72900;BME280;61043;52.036;5.566;2022-09-25T05:43:41;101712.31;;;9.45;84.84
72900;BME280;61043;52.036;5.566;2022-09-25T05:46:09;101693.31;;;9.37;85.29
72900;BME280;61043;52.036;5.566;2022-09-25T05:48:36;101706.22;;;9.43;85.19
72900;BME280;61043;52.036;5.566;2022-09-25T05:51:03;101699.31;;;9.40;85.03
72900;BME280;61043;52.036;5.566;2022-09-25T05:53:29;101698.50;;;9.38;85.31
72900;BME280;61043;52.036;5.566;2022-09-25T05:55:58;101687.31;;;9.33;84.80
72900;BME280;61043;52.036;5.566;2022-09-25T05:58:27;101705.28;;;9.44;85.29
72900;BME280;61043;52.036;5.566;2022-09-25T06:00:54;101694.00;;;9.40;85.87
72900;BME280;61043;52.036;5.566;2022-09-25T06:03:21;101703.38;;;9.48;85.69
72900;BME280;61043;52.036;5.566;2022-09-25T06:05:47;101713.22;;;9.44;86.09
72900;BME280;61043;52.036;5.566;2022-09-25T06:08:15;101697.59;;;9.39;86.59
72900;BME280;61043;52.036;5.566;2022-09-25T06:10:41;101696.97;;;9.34;86.23
72900;BME280;61043;52.036;5.566;2022-09-25T06:13:08;101697.59;;;9.39;86.26
72900;BME280;61043;52.036;5.566;2022-09-25T06:15:36;101708.44;;;9.52;86.23
72900;BME280;61043;52.036;5.566;2022-09-25T06:18:04;101693.47;;;9.51;85.81
72900;BME280;61043;52.036;5.566;2022-09-25T06:20:31;101699.47;;;9.55;85.61
72900;BME280;61043;52.036;5.566;2022-09-25T06:22:58;101711.94;;;9.70;85.43
72900;BME280;61043;52.036;5.566;2022-09-25T06:25:28;101711.66;;;9.75;85.36
72900;BME280;61043;52.036;5.566;2022-09-25T06:27:56;101707.84;;;9.80;85.43
72900;BME280;61043;52.036;5.566;2022-09-25T06:30:23;101715.56;;;9.85;85.15
72900;BME280;61043;52.036;5.566;2022-09-25T06:32:56;101698.06;;;9.82;85.83
72900;BME280;61043;52.036;5.566;2022-09-25T06:35:23;101715.09;;;9.94;85.09
72900;BME280;61043;52.036;5.566;2022-09-25T06:37:50;101708.97;;;9.94;84.87
72900;BME280;61043;52.036;5.566;2022-09-25T06:40:17;101706.66;;;10.03;84.75
72900;BME280;61043;52.036;5.566;2022-09-25T06:42:44;101708.91;;;10.11;85.05
72900;BME280;61043;52.036;5.566;2022-09-25T06:45:11;101709.44;;;10.18;85.17
72900;BME280;61043;52.036;5.566;2022-09-25T06:47:38;101702.19;;;10.21;84.75
72900;BME280;61043;52.036;5.566;2022-09-25T06:50:05;101708.75;;;10.32;84.58
72900;BME280;61043;52.036;5.566;2022-09-25T06:52:31;101706.69;;;10.37;84.28
72900;BME280;61043;52.036;5.566;2022-09-25T06:54:58;101710.66;;;10.45;84.25
72900;BME280;61043;52.036;5.566;2022-09-25T06:57:24;101715.50;;;10.53;85.32
72900;BME280;61043;52.036;5.566;2022-09-25T06:59:51;101711.94;;;10.54;84.74
72900;BME280;61043;52.036;5.566;2022-09-25T07:02:17;101705.69;;;10.55;84.81
72900;BME280;61043;52.036;5.566;2022-09-25T07:05:04;101713.94;;;10.66;84.67
72900;BME280;61043;52.036;5.566;2022-09-25T07:07:31;101718.03;;;10.72;85.84
72900;BME280;61043;52.036;5.566;2022-09-25T07:09:57;101714.72;;;10.84;85.92
72900;BME280;61043;52.036;5.566;2022-09-25T07:12:25;101715.38;;;10.88;86.72
72900;BME280;61043;52.036;5.566;2022-09-25T07:14:52;101725.13;;;11.03;87.16
72900;BME280;61043;52.036;5.566;2022-09-25T07:17:18;101721.44;;;11.06;86.22
72900;BME280;61043;52.036;5.566;2022-09-25T07:19:45;101727.34;;;11.11;85.24
72900;BME280;61043;52.036;5.566;2022-09-25T07:22:11;101725.88;;;11.21;86.74
72900;BME280;61043;52.036;5.566;2022-09-25T07:24:38;101729.63;;;11.33;86.87
72900;BME280;61043;52.036;5.566;2022-09-25T07:27:05;101724.31;;;11.33;85.49
72900;BME280;61043;52.036;5.566;2022-09-25T07:29:31;101716.69;;;11.43;86.21
72900;BME280;61043;52.036;5.566;2022-09-25T07:32:01;101722.06;;;11.57;87.43
72900;BME280;61043;52.036;5.566;2022-09-25T07:34:27;101722.47;;;11.65;87.30
72900;BME280;61043;52.036;5.566;2022-09-25T07:36:54;101687.72;;;11.54;87.38
72900;BME280;61043;52.036;5.566;2022-09-25T07:39:20;101734.03;;;11.94;87.66
72900;BME280;61043;52.036;5.566;2022-09-25T07:41:47;101696.63;;;11.83;85.49
72900;BME280;61043;52.036;5.566;2022-09-25T07:44:13;101726.16;;;12.07;85.16
72900;BME280;61043;52.036;5.566;2022-09-25T07:46:55;101718.97;;;12.23;84.09
72900;BME280;61043;52.036;5.566;2022-09-25T07:49:22;101722.00;;;12.46;86.37
72900;BME280;61043;52.036;5.566;2022-09-25T07:51:49;101711.09;;;12.51;84.89
72900;BME280;61043;52.036;5.566;2022-09-25T07:54:15;101710.44;;;12.61;83.50
72900;BME280;61043;52.036;5.566;2022-09-25T07:56:42;101711.34;;;12.75;83.66
72900;BME280;61043;52.036;5.566;2022-09-25T07:59:08;101715.97;;;12.85;83.93
72900;BME280;61043;52.036;5.566;2022-09-25T08:01:35;101706.59;;;13.07;83.97
72900;BME280;61043;52.036;5.566;2022-09-25T08:04:08;101717.78;;;13.26;83.87
72900;BME280;61043;52.036;5.566;2022-09-25T08:06:35;101712.81;;;13.35;83.00
72900;BME280;61043;52.036;5.566;2022-09-25T08:09:02;101712.34;;;13.55;81.79
72900;BME280;61043;52.036;5.566;2022-09-25T08:11:34;101720.91;;;13.73;81.70
72900;BME280;61043;52.036;5.566;2022-09-25T08:14:02;101715.25;;;13.77;81.74
72900;BME280;61043;52.036;5.566;2022-09-25T08:16:29;101723.38;;;13.89;79.77
72900;BME280;61043;52.036;5.566;2022-09-25T08:18:56;101725.19;;;14.01;79.97
72900;BME280;61043;52.036;5.566;2022-09-25T08:21:22;101707.72;;;14.10;80.20
72900;BME280;61043;52.036;5.566;2022-09-25T08:23:51;101732.97;;;14.30;78.71
72900;BME280;61043;52.036;5.566;2022-09-25T08:26:19;101716.47;;;14.25;76.96
72900;BME280;61043;52.036;5.566;2022-09-25T08:28:46;101714.72;;;14.36;77.36
72900;BME280;61043;52.036;5.566;2022-09-25T08:31:13;101694.69;;;14.43;77.02
72900;BME280;61043;52.036;5.566;2022-09-25T08:33:44;101721.94;;;14.73;76.92
72900;BME280;61043;52.036;5.566;2022-09-25T08:36:11;101718.50;;;14.83;76.15
72900;BME280;61043;52.036;5.566;2022-09-25T08:38:38;101722.56;;;14.89;75.10
72900;BME280;61043;52.036;5.566;2022-09-25T08:41:15;101715.56;;;14.99;75.84
72900;BME280;61043;52.036;5.566;2022-09-25T08:44:07;101720.31;;;15.07;75.50
72900;BME280;61043;52.036;5.566;2022-09-25T08:46:39;101709.84;;;15.17;73.67
72900;BME280;61043;52.036;5.566;2022-09-25T08:49:29;101700.31;;;15.25;72.50
72900;BME280;61043;52.036;5.566;2022-09-25T08:52:02;101693.25;;;15.24;72.89
72900;BME280;61043;52.036;5.566;2022-09-25T08:54:30;101706.16;;;15.31;71.03
72900;BME280;61043;52.036;5.566;2022-09-25T08:57:06;101696.69;;;15.26;70.52
72900;BME280;61043;52.036;5.566;2022-09-25T08:59:40;101707.34;;;15.26;69.81
72900;BME280;61043;52.036;5.566;2022-09-25T09:02:17;101704.84;;;15.36;70.93
72900;BME280;61043;52.036;5.566;2022-09-25T09:04:49;101705.47;;;15.40;68.63
72900;BME280;61043;52.036;5.566;2022-09-25T09:07:29;101713.22;;;15.67;70.09
72900;BME280;61043;52.036;5.566;2022-09-25T09:10:26;101719.13;;;15.83;69.72
72900;BME280;61043;52.036;5.566;2022-09-25T09:13:06;101712.94;;;15.83;68.32
72900;BME280;61043;52.036;5.566;2022-09-25T09:15:56;101712.63;;;15.75;66.58
72900;BME280;61043;52.036;5.566;2022-09-25T09:18:29;101707.00;;;15.90;68.03
72900;BME280;61043;52.036;5.566;2022-09-25T09:21:02;101708.69;;;16.03;68.42
72900;BME280;61043;52.036;5.566;2022-09-25T09:23:34;101706.53;;;16.19;67.18
72900;BME280;61043;52.036;5.566;2022-09-25T09:26:12;101707.75;;;16.15;66.08
72900;BME280;61043;52.036;5.566;2022-09-25T09:29:10;101705.31;;;16.23;65.30
72900;BME280;61043;52.036;5.566;2022-09-25T09:34:51;101703.25;;;16.49;64.77
72900;BME280;61043;52.036;5.566;2022-09-25T09:40:27;101703.63;;;16.78;63.25
72900;BME280;61043;52.036;5.566;2022-09-25T09:43:04;101711.25;;;16.94;62.95
72900;BME280;61043;52.036;5.566;2022-09-25T09:46:43;101691.16;;;17.32;64.45
72900;BME280;61043;52.036;5.566;2022-09-25T09:52:12;101710.50;;;17.36;62.66
72900;BME280;61043;52.036;5.566;2022-09-25T09:54:53;101703.63;;;16.78;65.38
72900;BME280;61043;52.036;5.566;2022-09-25T09:57:27;101717.19;;;16.08;68.40
72900;BME280;61043;52.036;5.566;2022-09-25T10:00:06;101701.41;;;15.58;68.99
72900;BME280;61043;52.036;5.566;2022-09-25T10:02:47;101709.78;;;15.29;71.01
72900;BME280;61043;52.036;5.566;2022-09-25T10:05:47;101706.16;;;15.06;71.78
72900;BME280;61043;52.036;5.566;2022-09-25T10:08:14;101690.84;;;14.97;73.95
72900;BME280;61043;52.036;5.566;2022-09-25T10:10:44;101702.03;;;15.02;73.56
72900;BME280;61043;52.036;5.566;2022-09-25T10:13:19;101689.16;;;14.83;72.46
72900;BME280;61043;52.036;5.566;2022-09-25T10:15:57;101696.09;;;14.86;72.19
72900;BME280;61043;52.036;5.566;2022-09-25T10:18:33;101690.00;;;14.97;71.55
72900;BME280;61043;52.036;5.566;2022-09-25T10:21:05;101692.03;;;14.93;70.86
72900;BME280;61043;52.036;5.566;2022-09-25T10:28:55;101696.28;;;15.20;71.05
72900;BME280;61043;52.036;5.566;2022-09-25T10:31:57;101686.09;;;15.25;69.18
72900;BME280;61043;52.036;5.566;2022-09-25T10:34:26;101688.13;;;15.45;68.60
72900;BME280;61043;52.036;5.566;2022-09-25T10:36:55;101689.06;;;15.68;68.20
72900;BME280;61043;52.036;5.566;2022-09-25T10:39:35;101691.19;;;15.87;67.46
72900;BME280;61043;52.036;5.566;2022-09-25T10:42:37;101687.94;;;16.06;67.44
72900;BME280;61043;52.036;5.566;2022-09-25T10:47:48;101677.63;;;16.58;66.31
72900;BME280;61043;52.036;5.566;2022-09-25T10:50:34;101665.91;;;16.70;64.59
72900;BME280;61043;52.036;5.566;2022-09-25T10:53:02;101664.31;;;16.90;63.72
72900;BME280;61043;52.036;5.566;2022-09-25T10:55:33;101664.63;;;17.08;63.76
72900;BME280;61043;52.036;5.566;2022-09-25T11:03:30;101656.63;;;17.50;60.76
72900;BME280;61043;52.036;5.566;2022-09-25T11:06:04;101666.34;;;17.83;61.26
72900;BME280;61043;52.036;5.566;2022-09-25T11:08:36;101656.72;;;17.60;60.12
72900;BME280;61043;52.036;5.566;2022-09-25T11:11:05;101661.34;;;17.37;58.07
72900;BME280;61043;52.036;5.566;2022-09-25T11:13:47;101649.78;;;17.57;61.33
72900;BME280;61043;52.036;5.566;2022-09-25T11:16:15;101659.66;;;17.78;59.92
72900;BME280;61043;52.036;5.566;2022-09-25T11:18:44;101651.44;;;17.90;58.35
72900;BME280;61043;52.036;5.566;2022-09-25T11:21:18;101654.59;;;18.05;59.96
72900;BME280;61043;52.036;5.566;2022-09-25T11:23:57;101658.09;;;17.96;58.73
72900;BME280;61043;52.036;5.566;2022-09-25T11:26:39;101656.13;;;17.77;58.55
72900;BME280;61043;52.036;5.566;2022-09-25T11:29:16;101638.50;;;17.75;59.71
72900;BME280;61043;52.036;5.566;2022-09-25T11:32:11;101645.72;;;18.05;59.52
72900;BME280;61043;52.036;5.566;2022-09-25T11:37:42;101634.69;;;17.98;58.17
72900;BME280;61043;52.036;5.566;2022-09-25T11:43:44;101628.16;;;18.22;55.77
72900;BME280;61043;52.036;5.566;2022-09-25T11:46:31;101629.78;;;18.03;55.12
72900;BME280;61043;52.036;5.566;2022-09-25T12:03:09;101595.44;;;18.97;52.62
72900;BME280;61043;52.036;5.566;2022-09-25T12:05:54;101605.00;;;18.71;53.30
72900;BME280;61043;52.036;5.566;2022-09-25T12:13:55;101609.69;;;17.67;60.23
72900;BME280;61043;52.036;5.566;2022-09-25T12:16:31;101604.22;;;17.47;59.14
72900;BME280;61043;52.036;5.566;2022-09-25T12:19:59;101598.66;;;17.81;57.07
72900;BME280;61043;52.036;5.566;2022-09-25T12:22:51;101592.16;;;18.15;57.76
72900;BME280;61043;52.036;5.566;2022-09-25T12:31:07;101582.31;;;18.25;51.90
72900;BME280;61043;52.036;5.566;2022-09-25T12:36:40;101581.72;;;18.81;56.01
72900;BME280;61043;52.036;5.566;2022-09-25T12:39:18;101586.25;;;19.00;53.04
72900;BME280;61043;52.036;5.566;2022-09-25T12:42:02;101581.72;;;18.91;53.58
72900;BME280;61043;52.036;5.566;2022-09-25T12:44:46;101574.06;;;19.25;53.45
72900;BME280;61043;52.036;5.566;2022-09-25T12:47:23;101574.75;;;19.37;53.25
72900;BME280;61043;52.036;5.566;2022-09-25T12:50:13;101577.72;;;19.24;51.42
72900;BME280;61043;52.036;5.566;2022-09-25T12:52:52;101564.34;;;18.85;52.24
72900;BME280;61043;52.036;5.566;2022-09-25T12:55:28;101568.16;;;18.92;54.44
72900;BME280;61043;52.036;5.566;2022-09-25T12:58:18;101560.25;;;18.91;54.29
72900;BME280;61043;52.036;5.566;2022-09-25T13:00:56;101560.50;;;18.68;55.02
72900;BME280;61043;52.036;5.566;2022-09-25T13:04:09;101558.53;;;18.61;55.11
72900;BME280;61043;52.036;5.566;2022-09-25T13:07:02;101549.97;;;18.76;53.67
72900;BME280;61043;52.036;5.566;2022-09-25T13:09:44;101561.34;;;18.69;53.67
72900;BME280;61043;52.036;5.566;2022-09-25T13:12:26;101561.31;;;18.49;53.79
72900;BME280;61043;52.036;5.566;2022-09-25T13:17:37;101553.69;;;18.35;55.22
72900;BME280;61043;52.036;5.566;2022-09-25T13:23:03;101554.53;;;18.36;56.44
72900;BME280;61043;52.036;5.566;2022-09-25T13:25:39;101554.94;;;18.21;55.47
72900;BME280;61043;52.036;5.566;2022-09-25T13:28:08;101552.06;;;18.13;54.93
72900;BME280;61043;52.036;5.566;2022-09-25T13:30:59;101546.19;;;18.19;57.55
72900;BME280;61043;52.036;5.566;2022-09-25T13:33:50;101542.91;;;18.16;56.27
72900;BME280;61043;52.036;5.566;2022-09-25T13:38:55;101555.09;;;17.89;56.53
72900;BME280;61043;52.036;5.566;2022-09-25T13:41:51;101540.75;;;17.69;57.80
72900;BME280;61043;52.036;5.566;2022-09-25T13:44:47;101553.16;;;17.91;58.27
72900;BME280;61043;52.036;5.566;2022-09-25T13:49:52;101548.03;;;18.19;56.66
72900;BME280;61043;52.036;5.566;2022-09-25T13:52:31;101542.03;;;18.05;55.72
72900;BME280;61043;52.036;5.566;2022-09-25T13:55:42;101540.59;;;17.92;55.13
72900;BME280;61043;52.036;5.566;2022-09-25T13:58:59;101547.44;;;17.75;56.05
72900;BME280;61043;52.036;5.566;2022-09-25T14:01:48;101545.81;;;17.62;56.83
72900;BME280;61043;52.036;5.566;2022-09-25T14:04:36;101544.25;;;17.60;55.04
72900;BME280;61043;52.036;5.566;2022-09-25T14:07:10;101525.44;;;17.50;55.61
72900;BME280;61043;52.036;5.566;2022-09-25T14:09:42;101530.75;;;17.71;56.06
72900;BME280;61043;52.036;5.566;2022-09-25T14:12:22;101532.03;;;17.67;56.07
72900;BME280;61043;52.036;5.566;2022-09-25T14:14:59;101518.94;;;17.43;54.38
72900;BME280;61043;52.036;5.566;2022-09-25T14:17:28;101509.09;;;17.22;55.23
72900;BME280;61043;52.036;5.566;2022-09-25T14:19:59;101526.00;;;17.44;57.07
72900;BME280;61043;52.036;5.566;2022-09-25T14:22:49;101528.28;;;17.49;58.77
72900;BME280;61043;52.036;5.566;2022-09-25T14:25:31;101505.19;;;17.27;56.54
72900;BME280;61043;52.036;5.566;2022-09-25T14:27:59;101506.94;;;17.37;57.94
72900;BME280;61043;52.036;5.566;2022-09-25T14:30:27;101516.25;;;17.43;57.83
72900;BME280;61043;52.036;5.566;2022-09-25T14:35:59;101512.94;;;17.30;58.58
72900;BME280;61043;52.036;5.566;2022-09-25T14:44:21;101504.63;;;17.33;57.74
72900;BME280;61043;52.036;5.566;2022-09-25T14:46:54;101491.69;;;17.28;58.50
72900;BME280;61043;52.036;5.566;2022-09-25T14:49:26;101504.84;;;17.41;58.11
72900;BME280;61043;52.036;5.566;2022-09-25T14:51:56;101494.94;;;17.32;56.03
72900;BME280;61043;52.036;5.566;2022-09-25T14:54:28;101496.16;;;17.49;58.21
72900;BME280;61043;52.036;5.566;2022-09-25T14:56:57;101478.66;;;17.44;56.12
